Time;durP1;ratioP1;P1;durP2;ratioP2;P2;SDS_P1;SDS_P2;PMS_P1;PMS_P2;Temp;Humidity;BMP_temperature;BMP_pressure;BME280_temperature;BME280_humidity;BME280_pressure;Samples;Min_cycle;Max_cycle;Signal;HPM_P1;HPM_P2
2022/01/06 00:00:09;;;;;;;0.70;0.70;;;;;;;;;;6247239;23;20000;-84
2022/01/06 00:02:35;;;;;;;0.98;0.73;;;;;;;;;;6247300;23;20031;-84
2022/01/06 00:05:01;;;;;;;0.95;0.70;;;;;;;;;;6247701;23;20004;-84
2022/01/06 00:07:28;;;;;;;1.30;0.98;;;;;;;;;;6247319;23;20011;-84
2022/01/06 00:09:53;;;;;;;1.83;0.70;;;;;;;;;;6247523;23;20000;-84
2022/01/06 00:12:23;;;;;;;0.80;0.80;;;;;;;;;;6247220;23;20012;-84
2022/01/06 00:14:59;;;;;;;1.23;0.80;;;;;;;;;;6220835;23;20329;-84
2022/01/06 00:17:41;;;;;;;0.70;0.70;;;;;;;;;;6220282;23;20079;-84
2022/01/06 00:25:35;;;;;;;0.50;0.50;;;;;;;;;;6257587;23;20009;-84
2022/01/06 00:28:01;;;;;;;0.60;0.60;;;;;;;;;;6247407;23;20010;-84
2022/01/06 00:30:28;;;;;;;0.68;0.68;;;;;;;;;;6219998;23;20007;-84
2022/01/06 00:32:53;;;;;;;0.60;0.60;;;;;;;;;;6247202;23;20028;-84
2022/01/06 00:35:19;;;;;;;0.70;0.70;;;;;;;;;;6247086;23;20011;-84
2022/01/06 00:37:44;;;;;;;1.80;0.82;;;;;;;;;;6247052;23;20000;-84
2022/01/06 00:40:10;;;;;;;1.10;0.85;;;;;;;;;;6247082;23;20000;-84
2022/01/06 00:42:35;;;;;;;0.80;0.80;;;;;;;;;;6247350;23;20297;-84
2022/01/06 00:45:01;;;;;;;0.80;0.70;;;;;;;;;;6246871;23;20011;-84
2022/01/06 00:47:26;;;;;;;1.40;0.73;;;;;;;;;;6246598;23;19996;-84
2022/01/06 00:49:51;;;;;;;1.10;1.00;;;;;;;;;;6220194;23;20008;-84
2022/01/06 00:52:17;;;;;;;0.63;0.63;;;;;;;;;;6246883;23;20004;-84
2022/01/06 00:54:42;;;;;;;0.77;0.77;;;;;;;;;;6247209;23;20007;-84
2022/01/06 00:57:08;;;;;;;0.95;0.68;;;;;;;;;;6246839;23;20015;-84
2022/01/06 00:59:34;;;;;;;0.75;0.75;;;;;;;;;;6247020;23;20034;-84
2022/01/06 01:01:59;;;;;;;0.70;0.70;;;;;;;;;;6246713;23;20426;-84
2022/01/06 01:04:25;;;;;;;0.70;0.70;;;;;;;;;;6246885;23;20000;-84
2022/01/06 01:06:50;;;;;;;0.85;0.85;;;;;;;;;;6246710;23;19996;-84
2022/01/06 01:09:16;;;;;;;0.70;0.70;;;;;;;;;;6219878;23;20004;-84
2022/01/06 01:11:41;;;;;;;1.02;0.70;;;;;;;;;;6246750;23;20004;-84
2022/01/06 01:14:18;;;;;;;0.60;0.60;;;;;;;;;;6246707;23;20012;-84
2022/01/06 01:16:53;;;;;;;0.63;0.63;;;;;;;;;;6246877;23;20308;-84
2022/01/06 01:19:19;;;;;;;0.50;0.50;;;;;;;;;;6246648;23;20001;-84
2022/01/06 01:21:45;;;;;;;1.15;0.70;;;;;;;;;;6246679;23;20004;-84
2022/01/06 01:24:11;;;;;;;1.75;0.70;;;;;;;;;;6246827;23;20321;-84
2022/01/06 01:26:36;;;;;;;1.40;0.70;;;;;;;;;;6246645;23;20004;-84
2022/01/06 01:29:02;;;;;;;0.50;0.50;;;;;;;;;;6219646;23;20335;-84
2022/01/06 01:31:32;;;;;;;0.82;0.82;;;;;;;;;;6246748;23;20071;-84
2022/01/06 01:34:02;;;;;;;1.35;0.90;;;;;;;;;;6246713;23;20395;-84
2022/01/06 01:36:27;;;;;;;0.73;0.73;;;;;;;;;;6246622;23;20141;-84
2022/01/06 01:38:53;;;;;;;0.70;0.65;;;;;;;;;;6246438;23;20000;-84
2022/01/06 01:41:19;;;;;;;0.70;0.70;;;;;;;;;;6246572;23;20000;-84
2022/01/06 01:43:47;;;;;;;0.80;0.80;;;;;;;;;;6246774;23;20000;-84
2022/01/06 01:46:16;;;;;;;0.70;0.70;;;;;;;;;;6246675;23;20004;-84
2022/01/06 01:48:48;;;;;;;0.70;0.70;;;;;;;;;;6219748;23;20012;-84
2022/01/06 01:51:14;;;;;;;0.70;0.70;;;;;;;;;;6246626;23;20087;-84
2022/01/06 01:53:39;;;;;;;0.75;0.75;;;;;;;;;;6219915;23;20012;-84
2022/01/06 01:56:06;;;;;;;0.68;0.60;;;;;;;;;;6245723;23;20363;-84
2022/01/06 01:58:34;;;;;;;0.98;0.88;;;;;;;;;;6219641;23;20404;-84
2022/01/06 02:00:59;;;;;;;0.70;0.70;;;;;;;;;;6246550;23;20020;-84
2022/01/06 02:03:25;;;;;;;0.70;0.70;;;;;;;;;;6246939;23;20009;-84
2022/01/06 02:05:50;;;;;;;0.80;0.80;;;;;;;;;;6246495;23;20391;-84
2022/01/06 02:08:16;;;;;;;0.85;0.70;;;;;;;;;;6219533;23;20408;-84
2022/01/06 02:10:42;;;;;;;0.80;0.63;;;;;;;;;;6246869;23;20051;-84
2022/01/06 02:13:07;;;;;;;0.70;0.70;;;;;;;;;;6246530;23;20423;-84
2022/01/06 02:15:33;;;;;;;0.60;0.60;;;;;;;;;;6246404;23;20016;-84
2022/01/06 02:17:58;;;;;;;0.73;0.73;;;;;;;;;;6219727;23;20011;-84
2022/01/06 02:20:24;;;;;;;0.80;0.80;;;;;;;;;;6246540;23;20000;-84
2022/01/06 02:22:51;;;;;;;0.70;0.70;;;;;;;;;;6246565;23;20011;-84
2022/01/06 02:25:28;;;;;;;0.88;0.68;;;;;;;;;;6246539;23;20027;-84
2022/01/06 02:27:55;;;;;;;1.70;0.80;;;;;;;;;;6246674;23;20000;-84
2022/01/06 02:30:22;;;;;;;0.73;0.73;;;;;;;;;;6246548;23;20086;-84
2022/01/06 02:32:49;;;;;;;0.70;0.70;;;;;;;;;;6219507;23;20467;-84
2022/01/06 02:35:21;;;;;;;0.90;0.70;;;;;;;;;;6246463;23;20075;-84
2022/01/06 02:37:47;;;;;;;0.73;0.70;;;;;;;;;;6194871;23;20008;-84
2022/01/06 02:40:15;;;;;;;0.60;0.60;;;;;;;;;;6246172;23;20024;-84
2022/01/06 02:42:43;;;;;;;0.70;0.70;;;;;;;;;;6245891;23;20118;-84
2022/01/06 02:45:10;;;;;;;0.60;0.60;;;;;;;;;;6246314;23;20008;-84
2022/01/06 02:47:35;;;;;;;0.65;0.65;;;;;;;;;;6246466;23;20007;-84
2022/01/06 02:50:01;;;;;;;2.42;0.60;;;;;;;;;;6246097;23;20437;-84
2022/01/06 02:52:26;;;;;;;0.70;0.70;;;;;;;;;;6246267;23;20004;-84
2022/01/06 02:54:52;;;;;;;0.60;0.60;;;;;;;;;;6246241;23;20328;-84
2022/01/06 02:57:17;;;;;;;0.60;0.60;;;;;;;;;;6246202;23;20004;-84
2022/01/06 02:59:43;;;;;;;1.45;0.75;;;;;;;;;;6219162;23;20083;-84
2022/01/06 03:02:08;;;;;;;0.70;0.70;;;;;;;;;;6246250;23;20004;-84
2022/01/06 03:04:34;;;;;;;0.70;0.70;;;;;;;;;;6246368;23;19996;-84
2022/01/06 03:07:01;;;;;;;1.25;1.13;;;;;;;;;;6246527;23;20000;-84
2022/01/06 03:09:36;;;;;;;0.70;0.70;;;;;;;;;;6245850;23;20000;-84
2022/01/06 03:12:06;;;;;;;0.60;0.60;;;;;;;;;;6247455;23;20066;-84
2022/01/06 03:14:32;;;;;;;0.70;0.70;;;;;;;;;;6248107;23;20004;-84
2022/01/06 03:16:58;;;;;;;0.57;0.57;;;;;;;;;;6247792;23;20000;-84
2022/01/06 03:19:23;;;;;;;0.70;0.70;;;;;;;;;;6247766;23;20030;-84
2022/01/06 03:21:49;;;;;;;0.60;0.60;;;;;;;;;;6248126;23;20424;-84
2022/01/06 03:24:16;;;;;;;0.70;0.70;;;;;;;;;;6247870;23;20000;-84
2022/01/06 03:26:41;;;;;;;0.60;0.60;;;;;;;;;;6247571;23;20008;-84
2022/01/06 03:29:07;;;;;;;0.70;0.70;;;;;;;;;;6247941;23;20010;-84
2022/01/06 03:31:33;;;;;;;0.50;0.50;;;;;;;;;;6247991;23;20000;-84
2022/01/06 03:33:58;;;;;;;0.70;0.70;;;;;;;;;;6247814;23;20442;-84
2022/01/06 03:36:23;;;;;;;0.60;0.60;;;;;;;;;;6247590;23;20004;-84
2022/01/06 03:38:49;;;;;;;0.60;0.60;;;;;;;;;;6247680;23;20004;-84
2022/01/06 03:41:14;;;;;;;0.68;0.68;;;;;;;;;;6247621;23;20074;-84
2022/01/06 03:43:40;;;;;;;0.60;0.60;;;;;;;;;;6247544;23;20004;-84
2022/01/06 03:46:05;;;;;;;1.13;0.68;;;;;;;;;;6247598;23;20008;-84
2022/01/06 03:48:30;;;;;;;0.65;0.65;;;;;;;;;;6247574;23;20331;-84
2022/01/06 03:50:56;;;;;;;0.60;0.60;;;;;;;;;;6247537;23;20327;-84
2022/01/06 03:53:21;;;;;;;0.50;0.50;;;;;;;;;;6247455;23;20004;-84
2022/01/06 03:55:47;;;;;;;0.63;0.63;;;;;;;;;;6247364;23;20083;-84
2022/01/06 03:58:12;;;;;;;0.70;0.60;;;;;;;;;;6247390;23;20079;-84
2022/01/06 04:00:38;;;;;;;0.88;0.50;;;;;;;;;;6220764;23;20008;-84
2022/01/06 04:03:03;;;;;;;0.75;0.50;;;;;;;;;;6220483;23;20335;-84
2022/01/06 04:05:31;;;;;;;0.52;0.52;;;;;;;;;;6220670;23;20371;-84
2022/01/06 04:07:57;;;;;;;0.65;0.65;;;;;;;;;;6247698;23;20027;-84
2022/01/06 04:10:22;;;;;;;0.63;0.63;;;;;;;;;;6247182;23;20431;-84
2022/01/06 04:12:48;;;;;;;0.60;0.60;;;;;;;;;;6220204;23;20008;-84
2022/01/06 04:15:14;;;;;;;0.65;0.65;;;;;;;;;;6247494;23;20000;-84
2022/01/06 04:17:41;;;;;;;0.70;0.70;;;;;;;;;;6220536;23;20008;-84
2022/01/06 04:20:08;;;;;;;0.80;0.80;;;;;;;;;;6247247;23;20379;-84
2022/01/06 04:22:34;;;;;;;0.70;0.70;;;;;;;;;;6246773;23;20030;-84
2022/01/06 04:25:00;;;;;;;0.70;0.70;;;;;;;;;;6221085;23;20003;-83
2022/01/06 04:27:25;;;;;;;0.82;0.80;;;;;;;;;;6220582;23;20083;-83
2022/01/06 04:29:51;;;;;;;0.60;0.60;;;;;;;;;;6248478;23;20331;-84
2022/01/06 04:32:16;;;;;;;0.60;0.60;;;;;;;;;;6247363;23;19993;-84
2022/01/06 04:34:42;;;;;;;0.70;0.70;;;;;;;;;;6247093;23;20004;-83
2022/01/06 04:37:07;;;;;;;0.68;0.60;;;;;;;;;;6220242;23;20099;-84
2022/01/06 04:39:33;;;;;;;0.70;0.70;;;;;;;;;;6246851;23;19996;-84
2022/01/06 04:41:58;;;;;;;1.17;0.80;;;;;;;;;;6247369;23;20000;-84
2022/01/06 04:44:24;;;;;;;0.60;0.60;;;;;;;;;;6247333;23;20455;-84
2022/01/06 04:46:49;;;;;;;0.70;0.70;;;;;;;;;;6247101;23;20079;-84
2022/01/06 04:49:15;;;;;;;1.17;0.70;;;;;;;;;;6246810;23;20087;-84
2022/01/06 04:51:40;;;;;;;0.70;0.70;;;;;;;;;;6245454;23;19996;-84
2022/01/06 04:54:06;;;;;;;0.60;0.60;;;;;;;;;;6247210;23;20004;-84
2022/01/06 04:56:36;;;;;;;0.55;0.55;;;;;;;;;;6247029;23;20327;-84
2022/01/06 04:59:07;;;;;;;3.83;2.35;;;;;;;;;;6220125;23;20077;-84
2022/01/06 05:01:33;;;;;;;4.22;2.80;;;;;;;;;;6220037;23;20145;-84
2022/01/06 05:03:59;;;;;;;3.35;3.05;;;;;;;;;;6247178;23;20044;-84
2022/01/06 05:06:25;;;;;;;3.47;3.05;;;;;;;;;;6246866;23;20103;-84
2022/01/06 05:08:50;;;;;;;4.72;3.90;;;;;;;;;;6246811;23;20018;-84
2022/01/06 05:11:16;;;;;;;5.32;4.10;;;;;;;;;;6247249;23;20008;-84
2022/01/06 05:13:41;;;;;;;5.60;4.10;;;;;;;;;;6219999;23;20066;-84
2022/01/06 05:16:07;;;;;;;5.00;4.07;;;;;;;;;;6246848;23;20076;-83
2022/01/06 05:18:32;;;;;;;4.28;3.50;;;;;;;;;;6246891;23;20000;-84
2022/01/06 05:20:58;;;;;;;4.40;3.97;;;;;;;;;;6220175;23;20011;-84
2022/01/06 05:23:23;;;;;;;4.88;4.38;;;;;;;;;;6246722;23;20032;-84
2022/01/06 05:25:48;;;;;;;4.03;3.63;;;;;;;;;;6247139;23;20000;-84
2022/01/06 05:28:14;;;;;;;4.22;3.58;;;;;;;;;;6246768;23;20389;-83
2022/01/06 05:30:39;;;;;;;4.40;3.75;;;;;;;;;;6246826;23;20035;-84
2022/01/06 05:33:05;;;;;;;4.53;4.10;;;;;;;;;;6219715;23;20008;-84
2022/01/06 05:35:30;;;;;;;4.28;3.20;;;;;;;;;;6219807;23;20012;-84
2022/01/06 05:37:56;;;;;;;3.97;3.47;;;;;;;;;;6246831;23;20046;-84
2022/01/06 05:40:24;;;;;;;4.20;3.80;;;;;;;;;;6246883;23;20011;-84
2022/01/06 05:42:50;;;;;;;4.35;3.53;;;;;;;;;;6219868;23;20420;-84
2022/01/06 05:45:16;;;;;;;3.95;3.55;;;;;;;;;;6246675;23;20038;-84
2022/01/06 05:47:41;;;;;;;4.05;3.40;;;;;;;;;;6246637;23;20000;-84
2022/01/06 05:50:08;;;;;;;3.78;3.33;;;;;;;;;;6246756;23;20026;-84
2022/01/06 05:52:34;;;;;;;3.75;3.42;;;;;;;;;;6246537;23;19996;-84
2022/01/06 05:55:00;;;;;;;3.63;3.33;;;;;;;;;;6246953;23;20001;-84
2022/01/06 05:57:25;;;;;;;5.00;3.80;;;;;;;;;;6246949;23;20327;-84
2022/01/06 05:59:51;;;;;;;3.83;3.35;;;;;;;;;;6246361;23;20004;-84
2022/01/06 06:02:16;;;;;;;3.58;3.20;;;;;;;;;;6246755;23;20007;-84
2022/01/06 06:04:42;;;;;;;3.92;3.50;;;;;;;;;;6246532;23;20054;-84
2022/01/06 06:07:08;;;;;;;3.20;2.90;;;;;;;;;;6246367;23;20071;-84
2022/01/06 06:09:33;;;;;;;3.35;2.95;;;;;;;;;;6246237;23;20000;-84
2022/01/06 06:11:59;;;;;;;3.47;3.10;;;;;;;;;;6246239;23;19996;-84
2022/01/06 06:14:24;;;;;;;3.90;3.05;;;;;;;;;;6246532;23;20079;-84
2022/01/06 06:16:50;;;;;;;4.03;2.90;;;;;;;;;;6246502;23;20000;-84
2022/01/06 06:19:15;;;;;;;2.83;2.58;;;;;;;;;;6246125;23;20059;-84
2022/01/06 06:21:41;;;;;;;2.80;2.42;;;;;;;;;;6246080;23;19996;-84
2022/01/06 06:24:06;;;;;;;2.83;2.42;;;;;;;;;;6246249;23;20075;-84
2022/01/06 06:26:32;;;;;;;2.92;2.10;;;;;;;;;;6246672;23;20458;-85
2022/01/06 06:28:57;;;;;;;2.92;2.63;;;;;;;;;;6246091;23;20008;-85
2022/01/06 06:31:23;;;;;;;2.22;1.98;;;;;;;;;;6246254;23;20491;-85
2022/01/06 06:33:48;;;;;;;2.30;2.10;;;;;;;;;;6246371;23;20032;-84
2022/01/06 06:36:14;;;;;;;3.97;2.50;;;;;;;;;;6245947;23;20087;-84
2022/01/06 06:38:39;;;;;;;2.65;2.45;;;;;;;;;;6246110;23;20352;-85
2022/01/06 06:41:04;;;;;;;2.70;2.13;;;;;;;;;;6246709;23;20001;-84
2022/01/06 06:43:30;;;;;;;3.40;2.53;;;;;;;;;;6246250;23;19997;-85
2022/01/06 06:45:55;;;;;;;3.45;2.72;;;;;;;;;;6246922;23;20011;-85
2022/01/06 06:48:22;;;;;;;4.38;2.90;;;;;;;;;;6248098;23;20011;-84
2022/01/06 06:50:48;;;;;;;4.47;3.17;;;;;;;;;;6248057;23;20008;-86
2022/01/06 06:53:13;;;;;;;3.45;2.85;;;;;;;;;;6221315;23;20008;-84
2022/01/06 06:55:39;;;;;;;4.18;3.13;;;;;;;;;;6247883;23;20011;-84
2022/01/06 06:58:04;;;;;;;3.33;2.90;;;;;;;;;;6248243;23;20038;-85
2022/01/06 07:00:30;;;;;;;2.67;2.40;;;;;;;;;;6248002;23;20004;-85
2022/01/06 07:02:55;;;;;;;4.53;2.90;;;;;;;;;;6247901;23;20332;-83
2022/01/06 07:05:20;;;;;;;2.90;2.60;;;;;;;;;;6248109;23;20000;-83
2022/01/06 07:07:47;;;;;;;3.80;3.10;;;;;;;;;;6247928;23;20007;-84
2022/01/06 07:10:14;;;;;;;3.53;2.70;;;;;;;;;;6221004;23;20008;-83
2022/01/06 07:12:41;;;;;;;3.88;2.90;;;;;;;;;;6220880;23;20363;-84
2022/01/06 07:15:08;;;;;;;3.47;2.67;;;;;;;;;;6248151;23;20054;-82
2022/01/06 07:17:34;;;;;;;4.72;3.03;;;;;;;;;;6248199;23;20395;-83
2022/01/06 07:19:59;;;;;;;3.47;2.53;;;;;;;;;;6247799;23;20000;-83
2022/01/06 07:22:24;;;;;;;3.67;3.22;;;;;;;;;;6247757;23;20416;-83
2022/01/06 07:24:50;;;;;;;4.35;3.33;;;;;;;;;;6220827;23;20108;-83
2022/01/06 07:27:15;;;;;;;2.90;2.50;;;;;;;;;;6248009;23;20000;-84
2022/01/06 07:29:41;;;;;;;4.22;2.85;;;;;;;;;;6247681;23;20023;-83
2022/01/06 07:32:06;;;;;;;3.50;2.97;;;;;;;;;;6247621;23;20003;-83
2022/01/06 07:34:32;;;;;;;3.28;2.92;;;;;;;;;;6247566;23;20008;-84
2022/01/06 07:36:59;;;;;;;3.50;2.72;;;;;;;;;;6247692;23;20363;-83
2022/01/06 07:39:25;;;;;;;3.35;3.03;;;;;;;;;;6220548;23;20050;-84
2022/01/06 07:41:50;;;;;;;3.22;2.88;;;;;;;;;;6247792;23;20000;-85
2022/01/06 07:44:16;;;;;;;3.38;2.72;;;;;;;;;;6247559;23;20008;-83
2022/01/06 07:46:43;;;;;;;3.83;3.22;;;;;;;;;;6220642;23;20436;-84
2022/01/06 07:49:08;;;;;;;3.22;2.60;;;;;;;;;;6247399;23;20028;-85
2022/01/06 07:51:34;;;;;;;3.47;2.58;;;;;;;;;;6247420;23;20000;-84
2022/01/06 07:54:00;;;;;;;3.35;2.70;;;;;;;;;;6220673;23;20012;-84
2022/01/06 07:56:25;;;;;;;3.38;2.88;;;;;;;;;;6220426;23;20012;-85
2022/01/06 07:58:51;;;;;;;3.72;2.88;;;;;;;;;;6247230;23;20424;-84
2022/01/06 08:01:17;;;;;;;3.20;2.88;;;;;;;;;;6247262;23;20007;-82
2022/01/06 08:03:42;;;;;;;5.60;3.25;;;;;;;;;;6220615;23;20009;-83
2022/01/06 08:06:09;;;;;;;4.07;2.70;;;;;;;;;;6247249;23;20015;-83
2022/01/06 08:08:35;;;;;;;5.82;3.40;;;;;;;;;;6247264;23;20058;-83
2022/01/06 08:11:00;;;;;;;3.97;3.20;;;;;;;;;;6220111;23;20016;-82
2022/01/06 08:13:26;;;;;;;3.55;2.70;;;;;;;;;;6247437;23;20058;-82
2022/01/06 08:15:51;;;;;;;3.55;3.25;;;;;;;;;;6247195;23;20058;-80
2022/01/06 08:18:17;;;;;;;3.75;2.80;;;;;;;;;;6247229;23;20000;-80
2022/01/06 08:20:42;;;;;;;6.55;4.07;;;;;;;;;;6247168;23;20022;-80
2022/01/06 08:23:08;;;;;;;7.47;4.60;;;;;;;;;;6247493;23;20074;-81
2022/01/06 13:59:31;;;;;;;6.63;4.83;;;;;;;;;;6248845;22;1463999;-86
2022/01/06 14:01:57;;;;;;;4.05;3.58;;;;;;;;;;6379377;22;20554;-84
2022/01/06 14:04:23;;;;;;;4.55;2.53;;;;;;;;;;6351334;22;20006;-85
2022/01/06 14:06:50;;;;;;;4.97;3.40;;;;;;;;;;6379669;22;20002;-85
2022/01/06 14:09:16;;;;;;;6.53;4.75;;;;;;;;;;6351562;22;20009;-85
2022/01/06 14:11:42;;;;;;;5.50;3.92;;;;;;;;;;6351608;22;20002;-84
2022/01/06 14:14:08;;;;;;;6.13;5.03;;;;;;;;;;6379256;22;20081;-85
2022/01/06 14:16:33;;;;;;;5.97;5.07;;;;;;;;;;6351521;22;20037;-85
2022/01/06 14:18:59;;;;;;;5.13;4.63;;;;;;;;;;6351303;22;20002;-84
2022/01/06 14:21:24;;;;;;;4.97;4.30;;;;;;;;;;6351240;22;20085;-84
2022/01/06 14:23:50;;;;;;;5.75;4.60;;;;;;;;;;6351370;22;20408;-85
2022/01/06 14:26:15;;;;;;;6.78;3.55;;;;;;;;;;6373729;22;19999;-85
2022/01/06 14:28:41;;;;;;;4.25;3.60;;;;;;;;;;6344434;22;20002;-86
2022/01/06 14:31:07;;;;;;;4.65;4.07;;;;;;;;;;6344312;22;20093;-89
2022/01/06 14:33:34;;;;;;;4.60;4.07;;;;;;;;;;6344800;22;19998;-85
2022/01/06 14:36:00;;;;;;;4.22;3.38;;;;;;;;;;6344061;22;20073;-86
2022/01/06 14:38:26;;;;;;;6.63;4.47;;;;;;;;;;6372101;22;20035;-85
2022/01/06 14:40:53;;;;;;;8.07;4.13;;;;;;;;;;6344150;22;20059;-84
2022/01/06 14:43:18;;;;;;;4.50;3.75;;;;;;;;;;6344013;22;20002;-85
2022/01/06 14:45:44;;;;;;;3.70;3.40;;;;;;;;;;6344004;22;20087;-84
2022/01/06 14:48:09;;;;;;;3.25;2.95;;;;;;;;;;6371937;22;20427;-85
2022/01/06 14:50:35;;;;;;;5.15;3.45;;;;;;;;;;6372591;22;20375;-88
2022/01/06 14:53:01;;;;;;;4.15;2.72;;;;;;;;;;6345107;22;19998;-88
2022/01/06 14:55:26;;;;;;;7.55;5.63;;;;;;;;;;6373112;22;20107;-85
2022/01/06 14:57:52;;;;;;;7.00;5.70;;;;;;;;;;6370770;22;20464;-84
2022/01/06 15:00:18;;;;;;;5.43;4.60;;;;;;;;;;6373569;22;20021;-88
2022/01/06 15:02:47;;;;;;;3.17;2.85;;;;;;;;;;6346775;22;20010;-90
2022/01/06 15:05:14;;;;;;;5.53;5.00;;;;;;;;;;6346612;22;20382;-85
2022/01/06 15:07:39;;;;;;;8.93;7.93;;;;;;;;;;6344337;22;20009;-85
2022/01/06 15:10:08;;;;;;;8.07;5.78;;;;;;;;;;6343809;22;20077;-85
2022/01/06 15:12:34;;;;;;;6.30;5.18;;;;;;;;;;6371683;22;20025;-85
2022/01/06 15:15:00;;;;;;;10.43;8.05;;;;;;;;;;6371610;22;20325;-84
2022/01/06 15:17:25;;;;;;;11.07;7.50;;;;;;;;;;6344398;22;20002;-87
2022/01/06 15:19:51;;;;;;;15.80;14.23;;;;;;;;;;6344017;22;20310;-87
2022/01/06 15:22:18;;;;;;;12.55;11.45;;;;;;;;;;6371738;22;20018;-84
2022/01/06 15:24:44;;;;;;;8.23;6.97;;;;;;;;;;6343804;22;20010;-88
2022/01/06 15:27:24;;;;;;;5.95;5.22;;;;;;;;;;6343513;22;20065;-87
2022/01/06 15:29:50;;;;;;;8.43;5.53;;;;;;;;;;6371924;22;20034;-85
2022/01/06 15:32:16;;;;;;;7.72;5.70;;;;;;;;;;6372011;22;20002;-87
2022/01/06 15:34:42;;;;;;;6.80;5.60;;;;;;;;;;6371562;22;20006;-86
2022/01/06 15:37:07;;;;;;;5.07;3.20;;;;;;;;;;6371029;22;20025;-85
2022/01/06 15:39:32;;;;;;;2.83;2.58;;;;;;;;;;6371247;22;20001;-85
2022/01/06 15:42:00;;;;;;;5.25;4.13;;;;;;;;;;6371199;22;20074;-85
2022/01/06 15:44:25;;;;;;;6.43;3.55;;;;;;;;;;6371497;22;20077;-86
2022/01/06 15:46:56;;;;;;;3.03;2.80;;;;;;;;;;6371655;22;20037;-86
2022/01/06 15:49:24;;;;;;;4.78;3.70;;;;;;;;;;6371292;22;20059;-86
2022/01/06 15:51:50;;;;;;;2.13;1.92;;;;;;;;;;6371415;22;20002;-85
2022/01/06 15:54:17;;;;;;;5.18;3.20;;;;;;;;;;6343425;22;20010;-87
2022/01/06 15:56:47;;;;;;;4.35;3.10;;;;;;;;;;6371393;22;20379;-87
2022/01/06 15:59:14;;;;;;;3.15;2.40;;;;;;;;;;6343852;22;20002;-87
2022/01/06 16:06:58;;;;;;;3.63;2.35;;;;;;;;;;6371538;22;20013;-86
2022/01/06 16:09:25;;;;;;;2.78;2.45;;;;;;;;;;6372221;22;20005;-87
2022/01/06 16:11:51;;;;;;;4.72;3.08;;;;;;;;;;6371718;22;20029;-85
2022/01/06 16:14:17;;;;;;;5.90;4.38;;;;;;;;;;6371301;22;20002;-86
2022/01/06 16:16:43;;;;;;;5.88;4.10;;;;;;;;;;6371223;22;19998;-87
2022/01/06 16:19:08;;;;;;;2.72;2.33;;;;;;;;;;6343427;22;19998;-85
2022/01/06 16:21:34;;;;;;;8.35;6.57;;;;;;;;;;6343593;22;20388;-86
2022/01/06 16:23:59;;;;;;;14.02;11.40;;;;;;;;;;6371419;22;20003;-86
2022/01/06 16:26:27;;;;;;;3.15;2.13;;;;;;;;;;6343507;22;20436;-87
2022/01/06 16:28:52;;;;;;;2.70;2.50;;;;;;;;;;6344236;22;20006;-87
2022/01/06 16:31:35;;;;;;;3.65;3.17;;;;;;;;;;6343288;22;20079;-86
2022/01/06 16:34:01;;;;;;;4.65;2.65;;;;;;;;;;6343536;22;20325;-89
2022/01/06 16:36:26;;;;;;;4.22;3.03;;;;;;;;;;6343432;22;20081;-86
2022/01/06 16:38:52;;;;;;;3.35;2.85;;;;;;;;;;6343069;22;20413;-85
2022/01/06 16:41:17;;;;;;;3.05;2.42;;;;;;;;;;6342866;22;20074;-86
2022/01/06 16:43:43;;;;;;;3.58;2.85;;;;;;;;;;6370961;22;20007;-87
2022/01/06 18:20:51;;;;;;;9.48;7.13;;;;;;;;;;6308864;22;20073;-84
2022/01/06 18:23:16;;;;;;;8.43;5.15;;;;;;;;;;6311336;22;20033;-84
2022/01/06 18:25:42;;;;;;;8.98;7.25;;;;;;;;;;6312325;22;20003;-85
2022/01/06 18:28:07;;;;;;;8.18;5.68;;;;;;;;;;6308218;22;20003;-84
2022/01/06 18:30:33;;;;;;;5.70;4.38;;;;;;;;;;6309537;22;20026;-84
2022/01/06 18:32:58;;;;;;;7.10;4.80;;;;;;;;;;6309520;22;20060;-85
2022/01/06 18:35:24;;;;;;;95.00;41.95;;;;;;;;;;6309180;22;20030;-85
2022/01/06 18:37:49;;;;;;;21.85;13.95;;;;;;;;;;6309346;22;20010;-84
2022/01/06 18:40:16;;;;;;;9.05;6.53;;;;;;;;;;6307661;22;20073;-84
2022/01/06 18:42:42;;;;;;;10.27;6.25;;;;;;;;;;6309345;22;20063;-84
2022/01/06 18:45:08;;;;;;;8.35;5.78;;;;;;;;;;6308882;22;19999;-89
2022/01/06 18:47:34;;;;;;;18.08;14.80;;;;;;;;;;6309206;22;20049;-85
2022/01/06 18:50:01;;;;;;;12.10;10.80;;;;;;;;;;6308950;22;20007;-84
2022/01/06 18:52:27;;;;;;;2.85;2.42;;;;;;;;;;6309180;22;20084;-83
2022/01/06 18:54:53;;;;;;;3.80;3.03;;;;;;;;;;6309157;22;20006;-84
2022/01/06 18:57:19;;;;;;;7.78;5.82;;;;;;;;;;6309076;22;20065;-84
2022/01/06 18:59:44;;;;;;;9.07;7.30;;;;;;;;;;6309192;22;20418;-84
2022/01/06 19:02:11;;;;;;;9.50;7.07;;;;;;;;;;6307748;22;20078;-83
2022/01/06 19:04:36;;;;;;;8.02;6.38;;;;;;;;;;6309136;22;20004;-85
2022/01/06 19:07:02;;;;;;;8.43;6.97;;;;;;;;;;6307348;22;20445;-83
2022/01/06 19:09:27;;;;;;;7.30;4.88;;;;;;;;;;6309560;22;20057;-84
2022/01/06 19:11:53;;;;;;;3.85;3.17;;;;;;;;;;6308978;22;20007;-83
2022/01/06 19:14:19;;;;;;;7.75;5.88;;;;;;;;;;6308002;22;20045;-83
2022/01/06 19:16:45;;;;;;;6.00;5.05;;;;;;;;;;6308683;22;20006;-84
2022/01/06 19:19:11;;;;;;;7.57;5.60;;;;;;;;;;6308915;22;20422;-85
2022/01/06 19:21:36;;;;;;;5.07;4.63;;;;;;;;;;6314868;22;20107;-84
2022/01/06 19:24:02;;;;;;;4.88;4.47;;;;;;;;;;6339429;22;19995;-84
2022/01/06 19:26:28;;;;;;;6.03;4.65;;;;;;;;;;6312073;22;20079;-85
2022/01/06 19:28:54;;;;;;;15.10;10.13;;;;;;;;;;6339485;22;20356;-85
2022/01/06 19:31:20;;;;;;;13.10;9.32;;;;;;;;;;6339505;22;20099;-85
2022/01/06 19:33:46;;;;;;;10.60;8.00;;;;;;;;;;6339238;22;20002;-85
2022/01/06 19:36:11;;;;;;;9.65;6.75;;;;;;;;;;6311855;22;20383;-85
2022/01/06 19:38:37;;;;;;;12.90;9.40;;;;;;;;;;6339219;22;20033;-87
2022/01/06 19:41:03;;;;;;;17.90;10.15;;;;;;;;;;6339676;22;20006;-86
2022/01/06 19:43:28;;;;;;;14.10;8.75;;;;;;;;;;6339367;22;20003;-85
2022/01/06 19:45:54;;;;;;;5.28;4.22;;;;;;;;;;6311819;22;20003;-85
2022/01/06 19:48:19;;;;;;;7.03;5.10;;;;;;;;;;6311549;22;20002;-85
2022/01/06 19:50:45;;;;;;;4.75;3.83;;;;;;;;;;6339177;22;20030;-85
2022/01/06 19:53:12;;;;;;;7.40;2.88;;;;;;;;;;6313161;22;20013;-86
2022/01/06 19:55:38;;;;;;;3.55;1.63;;;;;;;;;;6339745;22;20005;-85
2022/01/06 19:58:04;;;;;;;1.83;1.20;;;;;;;;;;6339236;22;20026;-86
2022/01/06 20:00:30;;;;;;;3.17;1.35;;;;;;;;;;6339250;22;19999;-85
2022/01/06 20:02:56;;;;;;;1.30;1.15;;;;;;;;;;6339108;22;19999;-86
2022/01/06 20:05:22;;;;;;;1.70;1.20;;;;;;;;;;6339350;22;20013;-89
2022/01/06 20:07:48;;;;;;;1.52;1.00;;;;;;;;;;6339636;22;20032;-87
2022/01/06 20:10:14;;;;;;;89.43;40.50;;;;;;;;;;6312622;22;19995;-88
2022/01/06 20:12:39;;;;;;;10.27;6.00;;;;;;;;;;6339713;22;19995;-87
2022/01/06 20:15:05;;;;;;;12.43;7.05;;;;;;;;;;6339666;22;20003;-87
2022/01/06 20:17:34;;;;;;;4.63;3.67;;;;;;;;;;6312026;22;19999;-90
2022/01/06 20:20:10;;;;;;;3.13;2.80;;;;;;;;;;6311638;22;20003;-86
2022/01/06 20:22:36;;;;;;;1.90;1.65;;;;;;;;;;6339284;22;20007;-87
2022/01/06 20:25:01;;;;;;;5.97;5.57;;;;;;;;;;6339704;22;20014;-87
2022/01/06 20:27:26;;;;;;;3.53;3.33;;;;;;;;;;6311578;22;20090;-87
2022/01/06 20:29:52;;;;;;;3.25;1.80;;;;;;;;;;6338958;22;20045;-87
2022/01/06 20:32:17;;;;;;;3.03;1.88;;;;;;;;;;6339126;22;20082;-86
2022/01/06 20:34:43;;;;;;;2.38;2.05;;;;;;;;;;6311423;22;20013;-91
2022/01/06 20:37:09;;;;;;;2.20;2.10;;;;;;;;;;6338250;22;20030;-88
2022/01/06 20:39:36;;;;;;;1.77;1.48;;;;;;;;;;6311255;22;20052;-86
2022/01/06 20:42:02;;;;;;;1.20;1.10;;;;;;;;;;6339214;22;20048;-87
2022/01/06 20:44:28;;;;;;;1.55;1.45;;;;;;;;;;6339278;22;20007;-87
2022/01/06 20:47:07;;;;;;;2.13;1.33;;;;;;;;;;6339112;22;20049;-86
2022/01/06 20:52:17;;;;;;;1.60;1.30;;;;;;;;;;6339414;22;20152;-87
2022/01/06 20:54:42;;;;;;;3.00;2.50;;;;;;;;;;6311307;22;20438;-86
2022/01/06 20:57:09;;;;;;;3.15;1.38;;;;;;;;;;6339201;22;20086;-86
2022/01/06 20:59:34;;;;;;;2.15;1.40;;;;;;;;;;6339040;22;20044;-86
2022/01/06 21:02:01;;;;;;;1.63;1.50;;;;;;;;;;6339050;22;20003;-87
2022/01/06 21:04:27;;;;;;;1.20;1.10;;;;;;;;;;6339056;22;20002;-87
2022/01/06 21:06:52;;;;;;;2.08;1.52;;;;;;;;;;6311478;22;20003;-86
2022/01/06 21:09:18;;;;;;;3.92;2.40;;;;;;;;;;6338826;22;20087;-86
2022/01/06 21:11:44;;;;;;;26.95;15.82;;;;;;;;;;6339054;22;20005;-87
2022/01/06 21:14:09;;;;;;;21.92;14.40;;;;;;;;;;6311076;22;20090;-85
2022/01/06 21:16:36;;;;;;;22.45;14.30;;;;;;;;;;6339313;22;20003;-86
2022/01/06 21:19:01;;;;;;;11.27;7.60;;;;;;;;;;6338834;22;20003;-87
2022/01/06 21:21:27;;;;;;;7.20;5.20;;;;;;;;;;6338795;22;20014;-87
2022/01/06 21:23:52;;;;;;;4.63;3.13;;;;;;;;;;6339023;22;20011;-86
2022/01/06 21:26:18;;;;;;;6.82;4.22;;;;;;;;;;6339056;22;20021;-86
2022/01/06 21:28:43;;;;;;;6.00;4.38;;;;;;;;;;6311152;22;20007;-87
2022/01/06 21:31:09;;;;;;;4.75;3.70;;;;;;;;;;6339027;22;19995;-86
2022/01/06 21:33:35;;;;;;;5.10;3.60;;;;;;;;;;6339084;22;20010;-86
2022/01/06 21:36:03;;;;;;;4.85;4.10;;;;;;;;;;6339875;22;20006;-85
2022/01/06 21:38:28;;;;;;;5.30;4.68;;;;;;;;;;6341087;22;20011;-85
2022/01/06 21:40:54;;;;;;;3.17;2.88;;;;;;;;;;6313465;22;20085;-86
2022/01/06 21:43:19;;;;;;;3.75;3.22;;;;;;;;;;6340746;22;20007;-86
2022/01/06 21:45:45;;;;;;;4.20;3.78;;;;;;;;;;6340925;22;20074;-86
2022/01/06 21:48:11;;;;;;;7.30;6.60;;;;;;;;;;6340936;22;20002;-85
2022/01/06 21:50:37;;;;;;;2.10;1.90;;;;;;;;;;6313231;22;20085;-86
2022/01/06 21:53:03;;;;;;;3.05;1.98;;;;;;;;;;6341467;22;19995;-86
2022/01/06 21:55:28;;;;;;;3.10;1.98;;;;;;;;;;6340610;22;20063;-86